Time;durP1;ratioP1;P1;durP2;ratioP2;P2;SDS_P1;SDS_P2;PMS_P1;PMS_P2;Temp;Humidity;BMP_temperature;BMP_pressure;BME280_temperature;BME280_humidity;BME280_pressure;Samples;Min_cycle;Max_cycle;Signal;HPM_P1;HPM_P2
2022/12/14 00:00:46;;;;;;;;;;;-1.10;99.90;;;;;;5025531;28;19909;-76
2022/12/14 00:03:12;;;;;;;;;;;-1.10;99.90;;;;;;5023455;28;20291;-76
2022/12/14 00:05:37;;;;;;;;;;;-1.10;99.90;;;;;;5026299;28;20364;-76
2022/12/14 00:08:03;;;;;;;;;;;-1.20;99.90;;;;;;5016920;28;19917;-76
2022/12/14 00:10:28;;;;;;;;;;;-1.20;99.90;;;;;;5022943;28;20012;-77
2022/12/14 00:12:54;;;;;;;;;;;-1.10;99.90;;;;;;5022930;28;19913;-77
2022/12/14 00:15:19;;;;;;;;;;;-1.20;99.90;;;;;;5032468;28;20662;-75
2022/12/14 00:17:45;;;;;;;;;;;-1.20;99.90;;;;;;5031238;28;20338;-75
2022/12/14 00:20:10;;;;;;;;;;;-1.10;99.90;;;;;;5034096;28;19941;-75
2022/12/14 00:22:36;;;;;;;;;;;-1.10;99.90;;;;;;5036758;28;19967;-74
2022/12/14 00:25:01;;;;;;;;;;;-1.10;99.90;;;;;;5025835;28;19987;-75
2022/12/14 00:27:27;;;;;;;;;;;-1.10;99.90;;;;;;5030630;28;19959;-76
2022/12/14 00:29:52;;;;;;;;;;;-1.00;99.90;;;;;;5037258;28;20263;-75
2022/12/14 00:32:18;;;;;;;;;;;-1.00;99.90;;;;;;5022124;28;19922;-77
2022/12/14 00:34:43;;;;;;;;;;;-1.00;99.90;;;;;;5028595;28;19913;-74
2022/12/14 00:37:09;;;;;;;;;;;-1.00;99.90;;;;;;5026185;28;20334;-77
2022/12/14 00:39:34;;;;;;;;;;;-1.10;99.90;;;;;;5024790;28;19924;-76
2022/12/14 00:42:00;;;;;;;;;;;-1.10;99.90;;;;;;5025036;28;19909;-74
2022/12/14 00:44:25;;;;;;;;;;;-1.10;99.90;;;;;;5024586;28;20026;-75
2022/12/14 00:46:51;;;;;;;;;;;-1.20;99.90;;;;;;5025279;28;19921;-75
2022/12/14 00:49:16;;;;;;;;;;;-1.10;99.90;;;;;;5016856;28;20004;-77
2022/12/14 00:51:41;;;;;;;;;;;-1.10;99.90;;;;;;5029159;28;20453;-77
2022/12/14 00:54:07;;;;;;;;;;;-1.10;99.90;;;;;;5027926;28;19913;-76
2022/12/14 00:56:32;;;;;;;;;;;-1.10;99.90;;;;;;5029578;28;19952;-76
2022/12/14 00:58:58;;;;;;;;;;;-1.10;99.90;;;;;;5021789;28;20567;-75
2022/12/14 01:01:24;;;;;;;;;;;-1.10;99.90;;;;;;5029181;28;20009;-76
2022/12/14 01:03:49;;;;;;;;;;;-1.10;99.90;;;;;;5038764;28;19913;-76
2022/12/14 01:06:16;;;;;;;;;;;-1.10;99.90;;;;;;5031944;28;20375;-76
2022/12/14 01:08:42;;;;;;;;;;;-1.10;99.90;;;;;;5024254;28;19920;-76
2022/12/14 01:11:08;;;;;;;;;;;-1.10;99.90;;;;;;5027069;28;19917;-76
2022/12/14 01:13:34;;;;;;;;;;;-1.00;99.90;;;;;;5028325;28;19924;-77
2022/12/14 01:16:09;;;;;;;;;;;-1.00;99.90;;;;;;5026124;28;19917;-74
2022/12/14 01:18:35;;;;;;;;;;;-1.00;99.90;;;;;;5018773;28;20288;-75
2022/12/14 01:21:21;;;;;;;;;;;-1.00;99.90;;;;;;5027337;28;19931;-75
2022/12/14 01:23:47;;;;;;;;;;;-1.00;99.90;;;;;;5022690;28;19909;-75
2022/12/14 01:26:13;;;;;;;;;;;-1.00;99.90;;;;;;5025804;28;19917;-75
2022/12/14 01:28:39;;;;;;;;;;;-1.10;99.90;;;;;;5024382;28;19913;-76
2022/12/14 01:31:10;;;;;;;;;;;-1.20;99.90;;;;;;5023267;28;19913;-77
2022/12/14 01:33:36;;;;;;;;;;;-1.20;99.90;;;;;;5008728;28;19909;-75
2022/12/14 01:36:03;;;;;;;;;;;-1.10;99.90;;;;;;5010853;28;20371;-76
2022/12/14 01:38:28;;;;;;;;;;;-1.20;99.90;;;;;;5019464;28;19928;-76
2022/12/14 01:40:57;;;;;;;;;;;-1.20;99.90;;;;;;5010281;28;20367;-76
2022/12/14 01:43:22;;;;;;;;;;;-1.20;99.90;;;;;;5025762;28;20523;-74
2022/12/14 01:45:48;;;;;;;;;;;-1.20;99.90;;;;;;5028421;28;20039;-75
2022/12/14 01:48:13;;;;;;;;;;;-1.10;99.90;;;;;;5025470;28;20367;-75
2022/12/14 01:50:42;;;;;;;;;;;-1.00;99.90;;;;;;5023059;28;19905;-75
2022/12/14 01:53:10;;;;;;;;;;;-0.90;99.90;;;;;;5026188;28;19913;-75
2022/12/14 01:55:37;;;;;;;;;;;-0.90;99.90;;;;;;4992004;28;19909;-76
2022/12/14 01:58:11;;;;;;;;;;;-1.00;99.90;;;;;;5027328;28;19909;-76
2022/12/14 02:00:37;;;;;;;;;;;-1.10;99.90;;;;;;5023200;28;19964;-76
2022/12/14 02:03:08;;;;;;;;;;;-1.10;99.90;;;;;;5028931;28;19913;-76
2022/12/14 02:05:36;;;;;;;;;;;-1.20;99.90;;;;;;5029417;28;19909;-77
2022/12/14 02:08:03;;;;;;;;;;;-1.10;99.90;;;;;;5023037;28;19909;-75
2022/12/14 02:10:30;;;;;;;;;;;-1.10;99.90;;;;;;5028248;28;20017;-76
2022/12/14 02:13:07;;;;;;;;;;;-1.00;99.90;;;;;;5022024;28;19910;-76
2022/12/14 02:15:33;;;;;;;;;;;-1.10;99.90;;;;;;5022270;28;19967;-75
2022/12/14 02:18:00;;;;;;;;;;;-1.10;99.90;;;;;;5025741;28;19929;-75
2022/12/14 02:20:33;;;;;;;;;;;-1.10;99.90;;;;;;5020615;28;19919;-76
2022/12/14 02:23:30;;;;;;;;;;;-1.10;99.90;;;;;;5019129;28;19913;-74
2022/12/14 02:26:13;;;;;;;;;;;-1.10;99.90;;;;;;4981238;28;19913;-75
2022/12/14 02:28:57;;;;;;;;;;;-1.10;99.90;;;;;;5022001;28;19949;-74
2022/12/14 02:31:25;;;;;;;;;;;-1.00;99.90;;;;;;5027155;28;19910;-74
2022/12/14 02:33:51;;;;;;;;;;;-1.00;99.90;;;;;;5028937;28;19911;-75
2022/12/14 02:36:23;;;;;;;;;;;-1.10;99.90;;;;;;5018921;28;19921;-76
2022/12/14 02:38:52;;;;;;;;;;;-1.00;99.90;;;;;;5025799;28;19924;-74
2022/12/14 02:41:27;;;;;;;;;;;-1.00;99.90;;;;;;5010970;28;19909;-76
2022/12/14 02:44:02;;;;;;;;;;;-1.10;99.90;;;;;;5018997;28;20014;-75
2022/12/14 02:46:40;;;;;;;;;;;-1.00;99.90;;;;;;5020279;28;20023;-76
2022/12/14 02:49:08;;;;;;;;;;;-0.90;99.90;;;;;;5024641;28;20357;-75
2022/12/14 02:51:34;;;;;;;;;;;-0.90;99.90;;;;;;5019104;28;20039;-75
2022/12/14 02:54:02;;;;;;;;;;;-0.90;99.90;;;;;;5023908;28;20011;-75
2022/12/14 02:56:32;;;;;;;;;;;-0.90;99.90;;;;;;5023305;28;20047;-75
2022/12/14 02:58:59;;;;;;;;;;;-0.90;99.90;;;;;;5008084;28;19971;-73
2022/12/14 03:01:26;;;;;;;;;;;-1.00;99.90;;;;;;5023171;28;19917;-75
2022/12/14 03:03:51;;;;;;;;;;;-1.00;99.90;;;;;;5025138;28;19913;-75
2022/12/14 03:06:24;;;;;;;;;;;-1.00;99.90;;;;;;5006562;28;20503;-75
2022/12/14 03:08:51;;;;;;;;;;;-1.00;99.90;;;;;;5023599;28;19913;-75
2022/12/14 03:11:22;;;;;;;;;;;-1.00;99.90;;;;;;5007863;28;19913;-77
2022/12/14 03:14:03;;;;;;;;;;;-1.00;99.90;;;;;;5020617;28;20462;-73
2022/12/14 03:16:32;;;;;;;;;;;-1.10;99.90;;;;;;5019004;28;20466;-72
2022/12/14 03:19:00;;;;;;;;;;;-1.00;99.90;;;;;;5025991;28;20552;-75
2022/12/14 03:21:36;;;;;;;;;;;-1.00;99.90;;;;;;5020328;28;20011;-75
2022/12/14 03:24:04;;;;;;;;;;;-1.10;99.90;;;;;;5021726;28;19920;-73
2022/12/14 03:26:36;;;;;;;;;;;-1.10;99.90;;;;;;5025263;28;20394;-74
2022/12/14 03:29:11;;;;;;;;;;;-1.10;99.90;;;;;;5026535;28;20241;-75
2022/12/14 03:31:41;;;;;;;;;;;-1.10;99.90;;;;;;5019772;28;19917;-74
2022/12/14 03:34:09;;;;;;;;;;;-1.10;99.90;;;;;;4999930;28;19929;-76
2022/12/14 03:36:39;;;;;;;;;;;-1.10;99.90;;;;;;5024991;28;20284;-75
2022/12/14 03:39:06;;;;;;;;;;;-1.10;99.90;;;;;;5020350;28;20023;-75
2022/12/14 03:41:38;;;;;;;;;;;-1.10;99.90;;;;;;5016222;28;19914;-74
2022/12/14 03:44:06;;;;;;;;;;;-1.10;99.90;;;;;;5022925;28;19936;-77
2022/12/14 03:46:37;;;;;;;;;;;-1.20;99.90;;;;;;5026767;28;19916;-76
2022/12/14 03:49:13;;;;;;;;;;;-1.10;99.90;;;;;;5019760;28;19939;-75
2022/12/14 03:51:50;;;;;;;;;;;-1.10;99.90;;;;;;5024143;28;19909;-76
2022/12/14 03:54:21;;;;;;;;;;;-1.00;99.90;;;;;;5002378;28;19922;-75
2022/12/14 03:56:49;;;;;;;;;;;-1.10;99.90;;;;;;5026329;28;19949;-74
2022/12/14 03:59:24;;;;;;;;;;;-1.10;99.90;;;;;;5025453;28;19964;-75
2022/12/14 04:01:54;;;;;;;;;;;-1.10;99.90;;;;;;5028154;28;20036;-76
2022/12/14 04:04:25;;;;;;;;;;;-1.10;99.90;;;;;;5026967;28;19921;-72
2022/12/14 04:07:03;;;;;;;;;;;-1.10;99.90;;;;;;5029054;28;19921;-75
2022/12/14 04:09:47;;;;;;;;;;;-1.10;99.90;;;;;;5023571;28;19917;-73
2022/12/14 04:20:42;;;;;;;;;;;-1.20;99.90;;;;;;5010265;28;20032;-77
2022/12/14 04:26:03;;;;;;;;;;;-1.20;99.90;;;;;;5002211;28;20724;-77
2022/12/14 04:26:06;;;;;;;;;;;-1.10;99.90;;;;;;5022599;28;19921;-74
2022/12/14 04:31:24;;;;;;;;;;;-1.20;99.90;;;;;;5025282;28;20385;-74
2022/12/14 04:33:52;;;;;;;;;;;-1.20;99.90;;;;;;5038871;28;19932;-75
2022/12/14 04:36:22;;;;;;;;;;;-1.20;99.90;;;;;;5036536;28;20009;-76
2022/12/14 04:38:49;;;;;;;;;;;-1.20;99.90;;;;;;5033784;28;19948;-74
2022/12/14 04:41:19;;;;;;;;;;;-1.20;99.90;;;;;;5027904;28;20507;-74
2022/12/14 04:43:46;;;;;;;;;;;-1.30;99.90;;;;;;5027003;28;20540;-75
2022/12/14 04:46:21;;;;;;;;;;;-1.20;99.90;;;;;;5013206;28;19913;-76
2022/12/14 04:48:53;;;;;;;;;;;-1.10;99.90;;;;;;5026903;28;19921;-77
2022/12/14 04:51:35;;;;;;;;;;;-1.10;99.90;;;;;;5022761;28;20355;-76
2022/12/14 04:54:09;;;;;;;;;;;-1.10;99.90;;;;;;5022136;28;20385;-76
2022/12/14 04:56:39;;;;;;;;;;;-1.10;99.90;;;;;;5008459;28;19917;-76
2022/12/14 04:59:05;;;;;;;;;;;-1.20;99.90;;;;;;5021654;28;19952;-75
2022/12/14 05:01:42;;;;;;;;;;;-1.10;99.90;;;;;;5023501;28;19960;-74
2022/12/14 05:04:12;;;;;;;;;;;-1.10;99.90;;;;;;5021224;28;19985;-75
2022/12/14 05:06:37;;;;;;;;;;;-1.20;99.90;;;;;;5029836;28;19919;-74
2022/12/14 05:09:09;;;;;;;;;;;-1.20;99.90;;;;;;5023845;28;20011;-76
2022/12/14 05:11:34;;;;;;;;;;;-1.10;99.90;;;;;;5026950;28;20032;-76
2022/12/14 05:14:01;;;;;;;;;;;-1.30;99.90;;;;;;5012699;28;20629;-76
2022/12/14 05:16:28;;;;;;;;;;;-1.30;99.90;;;;;;5028558;28;19949;-75
2022/12/14 05:18:53;;;;;;;;;;;-1.40;99.90;;;;;;5021027;28;19920;-74
2022/12/14 05:24:03;;;;;;;;;;;-1.90;99.90;;;;;;5023636;28;19944;-76
2022/12/14 05:26:29;;;;;;;;;;;-1.90;99.90;;;;;;5027676;28;19955;-74
2022/12/14 05:28:55;;;;;;;;;;;-1.90;99.90;;;;;;5025712;28;19920;-74
2022/12/14 05:31:21;;;;;;;;;;;-1.90;99.90;;;;;;5021986;28;19913;-76
2022/12/14 05:33:46;;;;;;;;;;;-1.90;99.90;;;;;;5029099;28;20309;-75
2022/12/14 05:36:12;;;;;;;;;;;-1.80;99.90;;;;;;5013430;28;20413;-76
2022/12/14 05:38:37;;;;;;;;;;;-1.80;99.90;;;;;;5031367;28;19909;-76
2022/12/14 05:41:03;;;;;;;;;;;-1.80;99.90;;;;;;5015141;28;19959;-75
2022/12/14 05:43:28;;;;;;;;;;;-1.80;99.90;;;;;;5027622;28;19948;-74
2022/12/14 05:46:01;;;;;;;;;;;-1.80;99.90;;;;;;5028774;28;19916;-77
2022/12/14 05:48:26;;;;;;;;;;;-1.80;99.90;;;;;;5034628;28;19965;-75
2022/12/14 05:50:51;;;;;;;;;;;-1.70;99.90;;;;;;5034847;28;19944;-77
2022/12/14 05:53:17;;;;;;;;;;;-1.90;99.90;;;;;;5020914;28;19983;-75
2022/12/14 05:55:46;;;;;;;;;;;-1.90;99.90;;;;;;5014453;28;19909;-76
2022/12/14 05:58:12;;;;;;;;;;;-1.80;99.90;;;;;;5035068;28;19948;-76
2022/12/14 06:00:38;;;;;;;;;;;-1.70;99.90;;;;;;5031174;28;20409;-76
2022/12/14 06:03:04;;;;;;;;;;;-1.50;99.90;;;;;;5038683;28;20343;-75
2022/12/14 06:05:30;;;;;;;;;;;-1.70;99.90;;;;;;5040446;28;19924;-75
2022/12/14 06:07:55;;;;;;;;;;;-1.80;99.90;;;;;;5040706;28;19917;-73
2022/12/14 06:10:21;;;;;;;;;;;-1.80;99.90;;;;;;5024848;28;19914;-74
2022/12/14 06:12:46;;;;;;;;;;;-1.90;99.90;;;;;;5041052;28;20429;-74
2022/12/14 06:15:12;;;;;;;;;;;-2.00;99.90;;;;;;5041218;28;19949;-76
2022/12/14 06:17:41;;;;;;;;;;;-1.90;99.90;;;;;;5020359;28;19940;-75
2022/12/14 06:20:07;;;;;;;;;;;-2.00;99.90;;;;;;5016954;28;19994;-75
2022/12/14 06:22:32;;;;;;;;;;;-2.10;99.90;;;;;;5036542;28;19913;-75
2022/12/14 06:24:58;;;;;;;;;;;-2.20;99.90;;;;;;5026458;28;20630;-76
2022/12/14 06:27:23;;;;;;;;;;;-2.20;99.90;;;;;;5031913;28;19960;-74
2022/12/14 06:29:49;;;;;;;;;;;-2.20;99.90;;;;;;5023971;28;20371;-75
2022/12/14 06:32:14;;;;;;;;;;;-2.30;99.90;;;;;;5026637;28;20050;-75
2022/12/14 06:34:39;;;;;;;;;;;-2.30;99.90;;;;;;5026180;28;19913;-72
2022/12/14 06:37:05;;;;;;;;;;;-2.30;99.90;;;;;;5024678;28;19920;-74
2022/12/14 06:39:30;;;;;;;;;;;-2.30;99.90;;;;;;5020256;28;19913;-73
2022/12/14 06:41:56;;;;;;;;;;;-2.20;99.90;;;;;;5019529;28;19913;-73
2022/12/14 06:44:21;;;;;;;;;;;-2.30;99.90;;;;;;5012717;28;19969;-74
2022/12/14 06:46:47;;;;;;;;;;;-2.40;99.90;;;;;;5006347;28;19913;-76
2022/12/14 06:49:13;;;;;;;;;;;-2.40;99.90;;;;;;5026291;28;19913;-77
2022/12/14 06:51:39;;;;;;;;;;;-2.40;99.90;;;;;;5023280;28;19980;-75
2022/12/14 06:54:04;;;;;;;;;;;-2.40;99.90;;;;;;5013475;28;19952;-74
2022/12/14 06:56:30;;;;;;;;;;;-2.50;99.90;;;;;;5011594;28;19914;-73
2022/12/14 06:58:56;;;;;;;;;;;-2.50;99.90;;;;;;5003719;28;19913;-73
2022/12/14 07:01:23;;;;;;;;;;;-2.50;99.90;;;;;;5020849;28;19913;-76
2022/12/14 07:03:49;;;;;;;;;;;-2.40;99.90;;;;;;5017269;28;19991;-76
2022/12/14 07:06:14;;;;;;;;;;;-2.40;99.90;;;;;;5018789;28;19956;-74
2022/12/14 07:08:40;;;;;;;;;;;-2.40;99.90;;;;;;5012829;28;20555;-75
2022/12/14 07:11:07;;;;;;;;;;;-2.50;99.90;;;;;;5017210;28;20111;-75
2022/12/14 07:13:33;;;;;;;;;;;-2.50;99.90;;;;;;5018299;28;19955;-75
2022/12/14 07:15:59;;;;;;;;;;;-2.40;99.90;;;;;;5025691;28;19950;-74
2022/12/14 07:18:25;;;;;;;;;;;-2.40;99.90;;;;;;5023738;28;19996;-73
2022/12/14 07:21:10;;;;;;;;;;;-2.50;99.90;;;;;;5020023;28;19917;-73
2022/12/14 07:23:37;;;;;;;;;;;-2.60;99.90;;;;;;5022107;28;19920;-74
2022/12/14 07:26:04;;;;;;;;;;;-2.80;99.90;;;;;;5004890;28;20048;-74
2022/12/14 07:28:30;;;;;;;;;;;-2.90;99.90;;;;;;5022730;28;20007;-74
2022/12/14 07:30:56;;;;;;;;;;;-3.00;99.90;;;;;;5025236;28;20411;-76
2022/12/14 07:33:21;;;;;;;;;;;-3.00;99.90;;;;;;5023178;28;19924;-74
2022/12/14 07:35:47;;;;;;;;;;;-3.10;99.90;;;;;;5026520;28;19963;-74
2022/12/14 07:38:12;;;;;;;;;;;-3.10;99.90;;;;;;5014248;28;20376;-75
2022/12/14 07:40:37;;;;;;;;;;;-3.10;99.90;;;;;;5019901;28;19916;-75
2022/12/14 07:43:03;;;;;;;;;;;-3.20;99.90;;;;;;5023781;28;20661;-75
2022/12/14 07:45:29;;;;;;;;;;;-3.20;99.90;;;;;;5019667;28;19917;-74
2022/12/14 07:47:54;;;;;;;;;;;-3.20;99.90;;;;;;5020379;28;19917;-74
2022/12/14 07:50:20;;;;;;;;;;;-3.20;99.90;;;;;;5018462;28;19909;-75
2022/12/14 07:52:45;;;;;;;;;;;-3.20;99.90;;;;;;5019973;28;19947;-74
2022/12/14 07:55:11;;;;;;;;;;;-3.30;99.90;;;;;;5026785;28;19913;-75
2022/12/14 07:57:36;;;;;;;;;;;-3.30;99.90;;;;;;5025540;28;20130;-76
2022/12/14 08:00:02;;;;;;;;;;;-3.30;99.90;;;;;;5027280;28;19948;-74
2022/12/14 08:02:28;;;;;;;;;;;-3.40;99.90;;;;;;5025576;28;19909;-75
2022/12/14 08:04:53;;;;;;;;;;;-3.40;99.90;;;;;;5029146;28;19952;-75
2022/12/14 08:07:19;;;;;;;;;;;-3.50;99.90;;;;;;5029859;28;20849;-75
2022/12/14 08:09:44;;;;;;;;;;;-3.50;99.90;;;;;;5031346;28;19944;-76
2022/12/14 08:12:10;;;;;;;;;;;-3.60;99.90;;;;;;5033949;28;19943;-73
2022/12/14 08:14:35;;;;;;;;;;;-3.60;99.90;;;;;;5032814;28;19909;-73
2022/12/14 08:17:01;;;;;;;;;;;-3.50;99.90;;;;;;5036290;28;19913;-73
2022/12/14 08:19:26;;;;;;;;;;;-3.50;99.90;;;;;;5037822;28;19910;-72
2022/12/14 08:21:51;;;;;;;;;;;-3.50;99.90;;;;;;5040662;28;19917;-73
2022/12/14 08:24:17;;;;;;;;;;;-3.50;99.90;;;;;;5036049;28;19940;-73
2022/12/14 08:26:42;;;;;;;;;;;-3.40;99.90;;;;;;5037280;28;20307;-76
2022/12/14 08:29:10;;;;;;;;;;;-3.30;99.90;;;;;;5037363;28;20020;-73
2022/12/14 08:31:36;;;;;;;;;;;-3.20;99.90;;;;;;5033053;28;19921;-72
2022/12/14 08:34:01;;;;;;;;;;;-3.10;99.90;;;;;;5023116;28;19909;-73
2022/12/14 08:36:31;;;;;;;;;;;-3.10;99.90;;;;;;5022411;28;19948;-73
2022/12/14 08:38:58;;;;;;;;;;;-3.10;99.90;;;;;;4999585;28;20016;-73
2022/12/14 08:41:24;;;;;;;;;;;-3.00;99.90;;;;;;5024829;28;19909;-74
2022/12/14 08:43:50;;;;;;;;;;;-3.00;99.90;;;;;;5023395;28;19971;-73
2022/12/14 08:46:16;;;;;;;;;;;-3.00;99.90;;;;;;5024381;28;19956;-72
2022/12/14 08:48:41;;;;;;;;;;;-2.90;99.90;;;;;;5023034;28;19963;-74
2022/12/14 08:51:07;;;;;;;;;;;-2.80;99.90;;;;;;5025167;28;19949;-74
2022/12/14 08:53:33;;;;;;;;;;;-2.80;99.90;;;;;;5025411;28;20294;-74
2022/12/14 08:56:03;;;;;;;;;;;-2.70;99.90;;;;;;5024477;28;19910;-74
2022/12/14 08:58:29;;;;;;;;;;;-2.70;99.90;;;;;;5021541;28;19916;-73
2022/12/14 09:01:02;;;;;;;;;;;-2.60;99.90;;;;;;5022097;28;19917;-72
2022/12/14 09:03:27;;;;;;;;;;;-2.60;99.90;;;;;;5020095;28;19914;-73
2022/12/14 09:05:54;;;;;;;;;;;-2.60;99.90;;;;;;5018122;28;19917;-73
2022/12/14 09:08:19;;;;;;;;;;;-2.80;99.90;;;;;;5021777;28;19943;-74
2022/12/14 09:10:49;;;;;;;;;;;-2.70;99.90;;;;;;5018983;28;19953;-73
2022/12/14 09:13:15;;;;;;;;;;;-2.60;99.90;;;;;;5024988;28;19951;-75
2022/12/14 09:15:40;;;;;;;;;;;-2.50;99.90;;;;;;5026794;28;20454;-75
2022/12/14 09:18:05;;;;;;;;;;;-2.60;99.90;;;;;;5021391;28;19924;-74
2022/12/14 09:20:31;;;;;;;;;;;-2.50;99.90;;;;;;5023186;28;20076;-73
2022/12/14 09:22:56;;;;;;;;;;;-2.50;99.90;;;;;;5024042;28;19995;-73
2022/12/14 09:25:22;;;;;;;;;;;-2.50;99.90;;;;;;5029636;28;19925;-73
2022/12/14 09:27:47;;;;;;;;;;;-2.40;99.90;;;;;;5017270;28;20411;-75
2022/12/14 09:30:13;;;;;;;;;;;-2.50;99.90;;;;;;5025678;28;19920;-75
2022/12/14 09:32:39;;;;;;;;;;;-2.50;99.90;;;;;;5025129;28;20338;-74
2022/12/14 09:35:05;;;;;;;;;;;-2.50;99.90;;;;;;5024400;28;19913;-74
2022/12/14 09:37:30;;;;;;;;;;;-2.60;99.90;;;;;;5022974;28;19916;-75
2022/12/14 09:39:55;;;;;;;;;;;-2.60;99.90;;;;;;5025703;28;19921;-75
2022/12/14 09:42:36;;;;;;;;;;;-2.60;99.90;;;;;;5024445;28;19948;-74
2022/12/14 09:45:22;;;;;;;;;;;-2.60;99.90;;;;;;5024933;28;19913;-74
2022/12/14 09:47:56;;;;;;;;;;;-2.60;99.90;;;;;;5019506;28;19909;-74
2022/12/14 09:50:22;;;;;;;;;;;-2.50;99.90;;;;;;5025510;28;19909;-73
2022/12/14 09:52:53;;;;;;;;;;;-2.40;99.90;;;;;;5006901;28;20383;-74
2022/12/14 09:55:21;;;;;;;;;;;-2.30;99.90;;;;;;5027111;28;19915;-74
2022/12/14 09:57:49;;;;;;;;;;;-2.30;99.90;;;;;;5025992;28;20020;-75
2022/12/14 10:00:18;;;;;;;;;;;-2.20;99.90;;;;;;5026953;28;20683;-72
2022/12/14 10:02:54;;;;;;;;;;;-2.30;99.90;;;;;;5025744;28;19913;-74
2022/12/14 10:05:29;;;;;;;;;;;-2.30;99.90;;;;;;5027342;28;19917;-76
2022/12/14 10:07:54;;;;;;;;;;;-2.30;99.90;;;;;;5023242;28;19909;-75
2022/12/14 10:10:30;;;;;;;;;;;-2.20;99.90;;;;;;5008372;28;19910;-73
2022/12/14 10:13:01;;;;;;;;;;;-2.10;99.90;;;;;;5004522;28;20272;-73
2022/12/14 10:15:30;;;;;;;;;;;-2.10;99.90;;;;;;5022360;28;19967;-74
2022/12/14 10:17:55;;;;;;;;;;;-2.00;99.90;;;;;;5019252;28;20356;-72
2022/12/14 10:20:41;;;;;;;;;;;-1.90;99.90;;;;;;5021498;28;20011;-74
2022/12/14 10:23:12;;;;;;;;;;;-1.80;99.90;;;;;;5015046;28;20280;-74
2022/12/14 10:25:39;;;;;;;;;;;-1.60;99.90;;;;;;5018770;28;19913;-77
2022/12/14 10:28:07;;;;;;;;;;;-1.60;99.90;;;;;;5025736;28;19913;-73
2022/12/14 10:30:34;;;;;;;;;;;-1.40;99.90;;;;;;5027268;28;19914;-74
2022/12/14 10:33:19;;;;;;;;;;;-1.40;99.90;;;;;;5024916;28;19917;-72
2022/12/14 10:35:52;;;;;;;;;;;-1.40;99.90;;;;;;5026450;28;20007;-73
2022/12/14 10:38:24;;;;;;;;;;;-1.30;99.90;;;;;;5025961;28;19913;-74
2022/12/14 10:40:51;;;;;;;;;;;-1.20;99.90;;;;;;5027807;28;20399;-72
2022/12/14 10:43:23;;;;;;;;;;;-1.10;99.90;;;;;;5021551;28;19910;-73
2022/12/14 10:45:55;;;;;;;;;;;-1.20;99.90;;;;;;5027894;28;19990;-73
2022/12/14 10:48:26;;;;;;;;;;;-1.10;99.90;;;;;;5025769;28;19996;-73
2022/12/14 10:50:57;;;;;;;;;;;-1.10;99.90;;;;;;5026566;28;19963;-73
2022/12/14 10:53:30;;;;;;;;;;;-1.20;99.90;;;;;;5022028;28;19917;-73
2022/12/14 10:55:59;;;;;;;;;;;-1.00;99.90;;;;;;5029205;28;19974;-74
2022/12/14 10:58:24;;;;;;;;;;;-0.90;99.90;;;;;;5028767;28;19909;-75
2022/12/14 11:00:53;;;;;;;;;;;-0.80;99.90;;;;;;5029145;28;20279;-73
2022/12/14 11:03:19;;;;;;;;;;;-0.80;99.90;;;;;;5027751;28;19913;-75
2022/12/14 11:05:50;;;;;;;;;;;-0.70;99.90;;;;;;5011903;28;19924;-74
2022/12/14 11:08:34;;;;;;;;;;;-0.60;99.90;;;;;;5012156;28;19917;-76
2022/12/14 11:11:07;;;;;;;;;;;-0.40;99.90;;;;;;5031781;28;20413;-73
2022/12/14 11:13:33;;;;;;;;;;;-0.50;99.90;;;;;;5030628;28;19909;-75
2022/12/14 11:16:14;;;;;;;;;;;-0.60;99.90;;;;;;5031861;28;19986;-74
2022/12/14 11:18:40;;;;;;;;;;;-0.60;99.90;;;;;;5036441;28;19909;-76
2022/12/14 11:21:05;;;;;;;;;;;-0.40;99.90;;;;;;5030361;28;19920;-74
2022/12/14 11:23:38;;;;;;;;;;;-0.30;99.90;;;;;;5037272;28;19909;-73
2022/12/14 11:26:07;;;;;;;;;;;-0.10;99.90;;;;;;5040203;28;19986;-73
2022/12/14 11:28:35;;;;;;;;;;;0.00;99.90;;;;;;5038756;28;19897;-75
2022/12/14 11:31:04;;;;;;;;;;;0.00;99.90;;;;;;5027183;28;19909;-74
2022/12/14 11:33:35;;;;;;;;;;;0.30;99.90;;;;;;5039348;28;19909;-74
2022/12/14 11:36:00;;;;;;;;;;;0.90;99.90;;;;;;5047946;28;19910;-75
2022/12/14 11:38:27;;;;;;;;;;;1.10;99.90;;;;;;5031339;28;19979;-76
2022/12/14 11:40:52;;;;;;;;;;;1.40;99.90;;;;;;5032252;28;20624;-74
2022/12/14 11:43:22;;;;;;;;;;;1.30;90.70;;;;;;5039324;28;19914;-75
2022/12/14 11:45:52;;;;;;;;;;;1.10;89.20;;;;;;5040055;28;19913;-74
2022/12/14 11:48:19;;;;;;;;;;;1.20;81.50;;;;;;5029964;28;19913;-74
2022/12/14 11:50:45;;;;;;;;;;;1.40;75.00;;;;;;5034716;28;20075;-74
2022/12/14 11:53:13;;;;;;;;;;;1.70;68.70;;;;;;5027205;28;19913;-74
2022/12/14 11:55:42;;;;;;;;;;;1.70;70.00;;;;;;5029338;28;19996;-74
2022/12/14 11:58:34;;;;;;;;;;;2.50;88.80;;;;;;5008385;28;20405;-75
2022/12/14 12:01:02;;;;;;;;;;;3.20;85.00;;;;;;4998026;28;19909;-74
2022/12/14 12:03:38;;;;;;;;;;;2.70;49.30;;;;;;5024738;28;19918;-75
2022/12/14 12:06:05;;;;;;;;;;;2.40;44.60;;;;;;5024182;28;19928;-74
2022/12/14 12:08:32;;;;;;;;;;;2.70;58.30;;;;;;5024705;28;20052;-74
2022/12/14 12:10:59;;;;;;;;;;;3.60;68.60;;;;;;5007637;28;19910;-73
2022/12/14 12:13:34;;;;;;;;;;;3.50;48.70;;;;;;5024567;28;19913;-76
2022/12/14 12:16:02;;;;;;;;;;;2.30;39.90;;;;;;5019000;28;20003;-75
2022/12/14 12:18:35;;;;;;;;;;;2.00;50.50;;;;;;5017419;28;19913;-73
2022/12/14 12:21:04;;;;;;;;;;;1.40;57.80;;;;;;5022179;28;20328;-75
2022/12/14 12:23:29;;;;;;;;;;;1.20;72.30;;;;;;5024431;28;19909;-76
2022/12/14 12:25:57;;;;;;;;;;;1.30;79.70;;;;;;5021944;28;19917;-74
2022/12/14 12:28:28;;;;;;;;;;;1.10;73.60;;;;;;5022983;28;19928;-78
2022/12/14 12:30:57;;;;;;;;;;;1.00;87.50;;;;;;5026348;28;19916;-76
2022/12/14 12:33:42;;;;;;;;;;;1.00;94.40;;;;;;5023572;28;19952;-75
2022/12/14 12:36:07;;;;;;;;;;;1.00;99.20;;;;;;5019672;28;19917;-76
2022/12/14 12:38:39;;;;;;;;;;;1.20;99.90;;;;;;5024211;28;19909;-77
2022/12/14 12:41:04;;;;;;;;;;;1.20;99.90;;;;;;5026241;28;20020;-75
2022/12/14 12:43:42;;;;;;;;;;;1.20;99.10;;;;;;5016162;28;19916;-78
2022/12/14 12:46:13;;;;;;;;;;;1.10;94.10;;;;;;5023040;28;19926;-77
2022/12/14 12:48:57;;;;;;;;;;;1.10;94.90;;;;;;5026047;28;19967;-77
2022/12/14 12:51:28;;;;;;;;;;;1.10;98.00;;;;;;5029351;28;19909;-76
2022/12/14 12:54:01;;;;;;;;;;;1.70;90.40;;;;;;5028379;28;19996;-76
2022/12/14 12:56:39;;;;;;;;;;;2.10;75.70;;;;;;5029234;28;19940;-77
2022/12/14 12:59:04;;;;;;;;;;;2.30;54.20;;;;;;5027518;28;19951;-78
2022/12/14 13:01:30;;;;;;;;;;;1.80;59.80;;;;;;5025485;28;19952;-77
2022/12/14 13:03:57;;;;;;;;;;;2.10;79.60;;;;;;5009989;28;19913;-75
2022/12/14 13:06:30;;;;;;;;;;;2.50;53.70;;;;;;5018646;28;19921;-77
2022/12/14 13:08:57;;;;;;;;;;;2.10;53.70;;;;;;5023642;28;19913;-76
2022/12/14 13:11:31;;;;;;;;;;;1.80;42.30;;;;;;5029594;28;19909;-76
2022/12/14 13:14:00;;;;;;;;;;;1.60;49.50;;;;;;5029987;28;19973;-76
2022/12/14 13:16:29;;;;;;;;;;;1.60;66.80;;;;;;5034742;28;19963;-76
2022/12/14 13:18:59;;;;;;;;;;;1.50;73.50;;;;;;5029511;28;19980;-76
2022/12/14 13:21:33;;;;;;;;;;;1.50;83.10;;;;;;5033100;28;19924;-78
2022/12/14 13:23:59;;;;;;;;;;;1.40;84.40;;;;;;5022524;28;19949;-76
2022/12/14 13:26:33;;;;;;;;;;;1.00;78.50;;;;;;5028525;28;19975;-75
2022/12/14 13:29:28;;;;;;;;;;;0.80;76.40;;;;;;5020471;28;19916;-73
2022/12/14 13:31:53;;;;;;;;;;;0.70;81.20;;;;;;5025571;28;19913;-76
2022/12/14 13:34:37;;;;;;;;;;;0.60;90.50;;;;;;5027804;28;19913;-76
2022/12/14 13:37:23;;;;;;;;;;;0.60;87.30;;;;;;5025061;28;19916;-74
2022/12/14 13:40:05;;;;;;;;;;;0.50;80.20;;;;;;5029785;28;19925;-76
2022/12/14 13:42:30;;;;;;;;;;;0.50;86.00;;;;;;5025474;28;19955;-73
2022/12/14 13:45:13;;;;;;;;;;;0.60;89.10;;;;;;5025273;28;19913;-75
2022/12/14 13:47:41;;;;;;;;;;;0.70;75.60;;;;;;5028357;28;19913;-76
2022/12/14 13:50:18;;;;;;;;;;;0.80;69.90;;;;;;5028711;28;19909;-75
2022/12/14 13:52:45;;;;;;;;;;;0.70;57.70;;;;;;5020913;28;19972;-75
2022/12/14 13:55:26;;;;;;;;;;;0.80;61.00;;;;;;5027113;28;19971;-76
2022/12/14 13:57:53;;;;;;;;;;;0.80;65.30;;;;;;5031564;28;19913;-74
2022/12/14 14:00:37;;;;;;;;;;;0.80;56.30;;;;;;5029948;28;19921;-74
2022/12/14 14:03:02;;;;;;;;;;;0.70;54.40;;;;;;5020344;28;19919;-76
2022/12/14 14:05:34;;;;;;;;;;;0.70;51.20;;;;;;5011770;28;19913;-76
2022/12/14 14:08:01;;;;;;;;;;;0.70;51.40;;;;;;5018288;28;19913;-72
2022/12/14 14:10:31;;;;;;;;;;;0.70;51.60;;;;;;5026539;28;20608;-75
2022/12/14 14:12:57;;;;;;;;;;;0.80;59.70;;;;;;5018837;28;19909;-74
2022/12/14 14:15:26;;;;;;;;;;;0.80;64.60;;;;;;5026079;28;19924;-73
2022/12/14 14:17:52;;;;;;;;;;;0.80;54.50;;;;;;5020857;28;20686;-74
2022/12/14 14:20:47;;;;;;;;;;;0.60;38.50;;;;;;5025054;28;19917;-74
2022/12/14 14:23:12;;;;;;;;;;;0.60;37.00;;;;;;5007936;28;20267;-76
2022/12/14 14:25:39;;;;;;;;;;;0.60;39.80;;;;;;5025929;28;19913;-75
2022/12/14 14:28:08;;;;;;;;;;;0.60;36.00;;;;;;5025295;28;20576;-75
2022/12/14 14:30:40;;;;;;;;;;;0.60;38.70;;;;;;5026912;28;19963;-76
2022/12/14 14:33:25;;;;;;;;;;;0.60;39.20;;;;;;5006857;28;19920;-74
2022/12/14 14:35:50;;;;;;;;;;;0.60;43.20;;;;;;5020359;28;19920;-74
2022/12/14 14:38:22;;;;;;;;;;;0.70;52.90;;;;;;5021419;28;19913;-76
2022/12/14 14:40:50;;;;;;;;;;;0.70;47.30;;;;;;5025991;28;19941;-76
2022/12/14 14:43:21;;;;;;;;;;;0.70;50.30;;;;;;5022586;28;19917;-74
2022/12/14 14:45:48;;;;;;;;;;;0.70;51.20;;;;;;5027242;28;20059;-76